Time;durP1;ratioP1;P1;durP2;ratioP2;P2;SDS_P1;SDS_P2;PMS_P1;PMS_P2;Temp;Humidity;BMP_temperature;BMP_pressure;BME280_temperature;BME280_humidity;BME280_pressure;Samples;Min_cycle;Max_cycle;Signal;HPM_P1;HPM_P2
2022/09/23 00:02:01;;;;;;;;;4.00;4.00;;;;;9.62;67.06;100168.50;5053268;28;9471;-62
2022/09/23 00:04:29;;;;;;;;;4.00;4.00;;;;;9.59;67.38;100168.72;5052959;28;8850;-62
2022/09/23 00:06:57;;;;;;;;;3.50;3.50;;;;;9.59;66.97;100168.72;5052840;28;8910;-61
2022/09/23 00:09:24;;;;;;;;;4.00;4.00;;;;;9.58;66.65;100167.00;5053063;28;8818;-60
2022/09/23 00:11:52;;;;;;;;;5.50;5.50;;;;;9.57;67.47;100167.97;5053343;28;8934;-61
2022/09/23 00:14:20;;;;;;;;;4.50;4.50;;;;;9.56;67.00;100174.25;5053076;28;8830;-60
2022/09/23 00:16:48;;;;;;;;;3.25;3.25;;;;;9.51;66.60;100171.09;5053074;28;8896;-60
2022/09/23 00:19:15;;;;;;;;;4.75;3.75;;;;;9.49;67.27;100164.19;5053200;28;8822;-62
2022/09/23 00:21:43;;;;;;;;;4.50;4.00;;;;;9.48;67.44;100155.34;5053091;28;8902;-62
2022/09/23 00:24:11;;;;;;;;;6.00;6.00;;;;;9.50;67.33;100166.72;5053127;28;8906;-62
2022/09/23 00:26:39;;;;;;;;;4.00;3.00;;;;;9.49;67.22;100161.53;5053105;28;8854;-62
2022/09/23 00:29:06;;;;;;;;;4.00;4.00;;;;;9.50;67.01;100158.72;5052864;28;8906;-61
2022/09/23 00:31:34;;;;;;;;;3.75;3.25;;;;;9.52;66.62;100154.19;5053153;28;8822;-61
2022/09/23 00:34:02;;;;;;;;;4.00;4.00;;;;;9.54;67.27;100148.72;5053084;28;8841;-62
2022/09/23 00:36:31;;;;;;;;;7.25;7.25;;;;;9.53;67.19;100147.03;5052824;28;8894;-61
2022/09/23 00:38:58;;;;;;;;;5.00;3.50;;;;;9.52;67.27;100150.66;5052872;28;8830;-62
2022/09/23 00:41:26;;;;;;;;;5.00;4.00;;;;;9.52;66.81;100142.69;5052921;28;8858;-62
2022/09/23 00:43:54;;;;;;;;;6.25;6.25;;;;;9.51;67.00;100148.97;5052966;28;8822;-62
2022/09/23 00:46:21;;;;;;;;;3.50;3.25;;;;;9.52;67.27;100143.53;5052708;28;8822;-62
2022/09/23 00:48:49;;;;;;;;;4.50;4.00;;;;;9.51;66.89;100149.81;5052868;28;8835;-62
2022/09/23 00:51:18;;;;;;;;;5.50;4.00;;;;;9.50;66.90;100152.59;5053011;28;9500;-60
2022/09/23 00:53:45;;;;;;;;;4.25;3.50;;;;;9.49;67.31;100141.09;5052882;28;8815;-59
2022/09/23 00:56:13;;;;;;;;;4.00;3.25;;;;;9.50;67.19;100147.28;5052353;28;8822;-61
2022/09/23 00:58:40;;;;;;;;;4.00;4.00;;;;;9.49;67.35;100146.41;5052694;28;8822;-62
2022/09/23 01:01:08;;;;;;;;;5.00;4.00;;;;;9.49;67.08;100133.13;5055961;28;8815;-62
2022/09/23 01:03:36;;;;;;;;;3.25;3.25;;;;;9.48;67.27;100128.75;5055813;28;8838;-62
2022/09/23 01:06:04;;;;;;;;;6.00;6.00;;;;;9.47;67.19;100126.22;5056287;28;8842;-60
2022/09/23 01:08:32;;;;;;;;;5.50;4.00;;;;;9.49;67.52;100130.47;5056416;28;8818;-61
2022/09/23 01:10:59;;;;;;;;;7.50;7.00;;;;;9.48;66.74;100128.75;5056241;28;8866;-61
2022/09/23 01:13:27;;;;;;;;;5.50;5.00;;;;;9.47;67.41;100116.44;5056190;28;8930;-61
2022/09/23 01:15:55;;;;;;;;;4.00;3.50;;;;;9.47;67.56;100119.09;5055751;28;8834;-61
2022/09/23 01:18:23;;;;;;;;;4.00;3.00;;;;;9.45;66.74;100113.06;5055761;28;9571;-61
2022/09/23 01:20:50;;;;;;;;;5.00;5.00;;;;;9.45;67.37;100114.84;5055830;28;8895;-62
2022/09/23 01:23:18;;;;;;;;;5.00;4.00;;;;;9.42;67.39;100113.25;5056335;28;8834;-60
2022/09/23 01:25:46;;;;;;;;;6.00;6.00;;;;;9.42;67.16;100113.25;5055702;28;8874;-62
2022/09/23 01:28:15;;;;;;;;;6.00;5.00;;;;;9.39;67.33;100108.16;5055826;28;8908;-61
2022/09/23 01:30:43;;;;;;;;;3.00;3.00;;;;;9.38;67.25;100111.78;5056222;28;8906;-60
2022/09/23 01:33:11;;;;;;;;;6.00;4.00;;;;;9.39;67.59;100110.81;5055410;28;8853;-60
2022/09/23 01:35:38;;;;;;;;;4.00;3.75;;;;;9.39;67.52;100108.16;5055837;28;8894;-62
2022/09/23 01:38:06;;;;;;;;;3.25;3.00;;;;;9.41;67.46;100100.94;5055449;28;8818;-62
2022/09/23 01:40:35;;;;;;;;;6.00;6.00;;;;;9.43;67.44;100106.97;5055956;28;8849;-61
2022/09/23 01:43:02;;;;;;;;;4.00;3.50;;;;;9.44;67.39;100100.72;5055922;28;8894;-60
2022/09/23 01:45:30;;;;;;;;;4.00;4.00;;;;;9.45;67.48;100104.22;5055605;28;8862;-59
2022/09/23 01:47:57;;;;;;;;;3.50;3.50;;;;;9.47;67.56;100105.81;5055511;28;8903;-60
2022/09/23 01:53:11;;;;;;;;;3.75;3.75;;;;;9.47;67.49;100105.81;5055372;28;8894;-61
2022/09/23 01:55:38;;;;;;;;;3.50;3.00;;;;;9.46;67.56;100103.25;5055386;28;8915;-60
2022/09/23 01:58:06;;;;;;;;;4.75;4.00;;;;;9.44;67.55;100098.06;5055470;28;8822;-60
2022/09/23 02:00:33;;;;;;;;;3.50;3.50;;;;;9.44;67.39;100092.75;5054952;28;8914;-60
2022/09/23 02:03:03;;;;;;;;;6.00;6.00;;;;;9.42;67.50;100094.66;5055521;28;8975;-60
2022/09/23 02:05:32;;;;;;;;;5.00;3.50;;;;;9.41;67.34;100100.09;5055525;28;8818;-59
2022/09/23 02:07:59;;;;;;;;;5.00;4.00;;;;;9.39;67.53;100092.22;5055188;28;9247;-60
2022/09/23 02:10:27;;;;;;;;;2.00;2.00;;;;;9.38;67.62;100095.84;5054652;28;8923;-60
2022/09/23 02:12:56;;;;;;;;;7.00;6.25;;;;;9.37;67.39;100086.19;5055209;28;8834;-59
2022/09/23 02:15:23;;;;;;;;;3.25;3.00;;;;;9.38;67.77;100095.84;5055207;28;8818;-60
2022/09/23 02:17:52;;;;;;;;;3.00;3.00;;;;;9.36;67.37;100087.16;5055287;28;8826;-59
2022/09/23 02:20:20;;;;;;;;;4.50;3.75;;;;;9.34;67.44;100091.69;5054995;28;8890;-60
2022/09/23 02:22:48;;;;;;;;;3.50;3.50;;;;;9.34;67.86;100082.91;5054516;28;8845;-61
2022/09/23 02:25:16;;;;;;;;;4.00;4.00;;;;;9.32;67.82;100080.34;5054763;28;8815;-60
2022/09/23 02:27:43;;;;;;;;;2.50;2.50;;;;;9.32;68.10;100090.97;5055012;28;8829;-60
2022/09/23 02:30:11;;;;;;;;;4.25;3.50;;;;;9.31;67.70;100081.31;5054613;28;8826;-60
2022/09/23 02:32:39;;;;;;;;;4.00;3.25;;;;;9.29;68.52;100079.72;5054690;28;8834;-60
2022/09/23 02:35:06;;;;;;;;;4.50;4.50;;;;;9.27;67.76;100074.50;5054723;28;8818;-60
2022/09/23 02:37:34;;;;;;;;;4.00;4.00;;;;;9.23;67.87;100070.38;5054690;28;8902;-61
2022/09/23 02:40:02;;;;;;;;;5.50;5.50;;;;;9.21;67.89;100071.44;5054273;28;8911;-60
2022/09/23 02:42:31;;;;;;;;;4.00;4.00;;;;;9.17;67.88;100076.13;5054531;28;8855;-60
2022/09/23 02:44:58;;;;;;;;;6.50;6.00;;;;;9.15;68.65;100069.22;5054202;28;8902;-61
2022/09/23 02:47:26;;;;;;;;;4.00;4.00;;;;;9.13;68.28;100071.97;5054500;28;8822;-62
2022/09/23 02:49:55;;;;;;;;;3.00;3.00;;;;;9.12;68.25;100067.63;5054134;28;8811;-60
2022/09/23 02:52:23;;;;;;;;;3.25;3.25;;;;;9.12;68.50;100061.47;5054064;28;8819;-59
2022/09/23 02:54:52;;;;;;;;;2.00;1.50;;;;;9.14;68.13;100060.41;5054630;28;8834;-59
2022/09/23 02:57:20;;;;;;;;;4.00;3.00;;;;;9.16;67.94;100052.31;5054079;28;8806;-60
2022/09/23 02:59:49;;;;;;;;;4.00;4.00;;;;;9.17;67.90;100057.53;5054139;28;8833;-59
2022/09/23 03:02:19;;;;;;;;;3.25;3.00;;;;;9.18;68.39;100059.22;5053902;28;8867;-60
2022/09/23 03:04:47;;;;;;;;;3.50;3.50;;;;;9.19;67.65;100057.44;5054187;28;8826;-60
2022/09/23 03:07:16;;;;;;;;;3.00;3.00;;;;;9.17;68.17;100057.53;5054356;28;8818;-61
2022/09/23 03:09:43;;;;;;;;;3.00;3.00;;;;;9.17;68.01;100049.56;5054313;28;8822;-60
2022/09/23 03:12:11;;;;;;;;;4.00;3.50;;;;;9.16;67.63;100047.00;5054133;28;8858;-62
2022/09/23 03:14:38;;;;;;;;;3.50;3.50;;;;;9.15;68.17;100042.66;5054361;28;8882;-60
2022/09/23 03:17:06;;;;;;;;;5.00;5.00;;;;;9.12;67.93;100046.38;5053786;28;8826;-60
2022/09/23 03:19:34;;;;;;;;;4.50;4.00;;;;;9.08;67.94;100034.28;5053943;28;8830;-60
2022/09/23 03:22:02;;;;;;;;;6.00;6.00;;;;;9.06;67.91;100036.22;5052548;28;8822;-60
2022/09/23 03:24:30;;;;;;;;;5.25;4.75;;;;;9.03;68.04;100031.09;5053361;28;8833;-60
2022/09/23 03:26:59;;;;;;;;;3.00;3.00;;;;;9.00;68.08;100025.16;5053632;28;8914;-60
2022/09/23 03:29:27;;;;;;;;;6.00;6.00;;;;;8.97;68.26;100026.22;5053631;28;9468;-60
2022/09/23 03:31:55;;;;;;;;;6.50;6.00;;;;;8.94;68.40;100026.47;5053460;28;8910;-61
2022/09/23 03:34:23;;;;;;;;;4.50;4.50;;;;;8.91;68.34;100024.03;5053451;28;8850;-60
2022/09/23 03:36:50;;;;;;;;;4.00;4.00;;;;;8.89;68.50;100027.75;5053815;28;8842;-60
2022/09/23 03:39:18;;;;;;;;;3.00;3.00;;;;;8.87;68.50;100025.19;5053730;28;8869;-60
2022/09/23 03:41:47;;;;;;;;;5.00;3.00;;;;;8.84;68.52;100016.59;5053476;28;8838;-60
2022/09/23 03:44:16;;;;;;;;;4.40;4.40;;;;;8.84;68.50;100024.56;5053409;28;8899;-60
2022/09/23 03:46:48;;;;;;;;;3.75;3.00;;;;;8.81;68.63;100015.00;5052946;28;8827;-60
2022/09/23 03:49:16;;;;;;;;;4.00;4.00;;;;;8.78;68.68;100020.56;5052673;28;8945;-60
2022/09/23 03:51:43;;;;;;;;;5.00;4.00;;;;;8.77;68.79;100020.66;5052809;28;8913;-60
2022/09/23 03:54:11;;;;;;;;;3.00;3.00;;;;;8.76;68.58;100008.34;5052105;28;8888;-60
2022/09/23 03:56:39;;;;;;;;;4.00;3.00;;;;;8.78;68.75;100014.38;5051825;28;8914;-62
2022/09/23 03:59:06;;;;;;;;;3.75;3.50;;;;;8.80;68.60;100017.78;5051535;28;8849;-60
2022/09/23 04:01:34;;;;;;;;;3.50;2.50;;;;;8.81;68.57;100009.69;5051850;28;8830;-60
2022/09/23 04:04:02;;;;;;;;;3.75;3.75;;;;;8.84;68.65;100016.59;5051567;28;8937;-60
2022/09/23 04:06:29;;;;;;;;;4.00;4.00;;;;;8.81;68.66;100004.38;5051808;28;8902;-61
2022/09/23 04:08:58;;;;;;;;;6.50;5.50;;;;;8.80;68.73;100004.53;5052178;28;8829;-60
2022/09/23 04:11:25;;;;;;;;;5.50;4.50;;;;;8.77;68.22;100004.72;5051755;28;8912;-60
2022/09/23 04:13:53;;;;;;;;;3.75;3.75;;;;;8.75;68.96;100006.66;5052594;28;9198;-60
2022/09/23 04:16:20;;;;;;;;;7.00;7.00;;;;;8.73;68.85;100005.91;5052018;28;8818;-60
2022/09/23 04:18:48;;;;;;;;;6.25;3.50;;;;;8.69;68.89;100007.94;5052627;28;9630;-60
2022/09/23 04:21:16;;;;;;;;;4.00;4.00;;;;;8.65;68.84;100003.78;5052792;28;8842;-60
2022/09/23 04:23:45;;;;;;;;;3.00;3.00;;;;;8.63;69.19;100003.06;5052751;28;8826;-60
2022/09/23 04:26:12;;;;;;;;;5.00;5.00;;;;;8.60;69.13;100005.91;5053011;28;9475;-60
2022/09/23 04:28:40;;;;;;;;;3.50;3.50;;;;;8.59;69.08;100004.22;5052919;28;9588;-61
2022/09/23 04:31:08;;;;;;;;;3.75;3.00;;;;;8.57;69.53;100011.44;5052697;28;8830;-61
2022/09/23 04:33:36;;;;;;;;;3.00;3.00;;;;;8.55;68.80;100001.88;5052597;28;8834;-60
2022/09/23 04:36:04;;;;;;;;;3.25;3.25;;;;;8.55;68.63;99997.44;5052408;28;8890;-60
2022/09/23 04:38:31;;;;;;;;;5.50;4.00;;;;;8.55;69.02;99996.59;5052563;28;8839;-60
2022/09/23 04:40:59;;;;;;;;;4.00;4.00;;;;;8.55;68.97;99997.44;5052873;28;8858;-60
2022/09/23 04:43:26;;;;;;;;;4.00;3.50;;;;;8.56;69.15;99996.47;5052608;28;8814;-60
2022/09/23 04:45:56;;;;;;;;;4.00;4.00;;;;;8.55;69.53;100005.41;5052658;28;8845;-60
2022/09/23 04:48:23;;;;;;;;;3.75;3.50;;;;;8.52;69.13;99992.34;5051968;28;8819;-59
2022/09/23 04:50:51;;;;;;;;;4.00;4.00;;;;;8.52;68.85;99992.34;5051952;28;8834;-61
2022/09/23 04:53:20;;;;;;;;;3.25;3.00;;;;;8.49;69.31;99989.03;5051357;28;8910;-60
2022/09/23 04:55:47;;;;;;;;;3.50;3.50;;;;;8.47;69.10;99994.47;5051176;28;8830;-60
2022/09/23 04:58:15;;;;;;;;;3.00;3.00;;;;;8.44;69.25;99984.06;5050921;28;8893;-59
2022/09/23 05:00:43;;;;;;;;;1.00;1.00;;;;;8.40;69.40;99977.28;5051215;28;8822;-60
2022/09/23 05:03:12;;;;;;;;;4.00;4.00;;;;;8.40;69.29;99977.28;5050182;28;8822;-59
2022/09/23 05:05:40;;;;;;;;;3.00;3.00;;;;;8.39;69.29;99974.75;5049961;28;8834;-61
2022/09/23 05:08:08;;;;;;;;;0.75;0.00;;;;;8.38;69.36;99976.53;5049293;28;9603;-59
2022/09/23 05:10:36;;;;;;;;;3.50;3.25;;;;;8.36;69.29;99967.84;5048840;28;8842;-61
2022/09/23 05:13:03;;;;;;;;;4.00;4.00;;;;;8.36;69.52;99965.19;5048876;28;8842;-60
2022/09/23 05:15:31;;;;;;;;;3.00;3.00;;;;;8.37;69.39;99966.03;5048562;28;8822;-61
2022/09/23 05:17:59;;;;;;;;;0.00;0.00;;;;;8.35;70.04;99963.50;5048628;28;8822;-60
2022/09/23 05:20:26;;;;;;;;;3.80;3.80;;;;;8.35;69.07;99968.78;5048920;28;8888;-60
2022/09/23 05:22:54;;;;;;;;;3.60;3.60;;;;;8.33;69.72;99962.75;5049540;28;8834;-61
2022/09/23 05:25:23;;;;;;;;;3.00;3.00;;;;;8.29;69.70;99968.38;5049443;28;8869;-60
2022/09/23 05:27:51;;;;;;;;;3.00;3.00;;;;;8.26;69.87;99964.16;5049839;28;8859;-60
2022/09/23 05:30:19;;;;;;;;;5.20;3.40;;;;;8.24;69.76;99963.41;5050245;28;9515;-60
2022/09/23 05:32:46;;;;;;;;;3.80;3.80;;;;;8.21;69.86;99960.94;5049682;28;8908;-60
2022/09/23 05:35:14;;;;;;;;;3.00;3.00;;;;;8.22;69.79;99962.66;5049511;28;8826;-62
2022/09/23 05:37:42;;;;;;;;;3.60;3.60;;;;;8.21;69.89;99962.78;5048890;28;8830;-61
2022/09/23 05:40:10;;;;;;;;;3.00;3.00;;;;;8.22;69.68;99965.28;5047683;28;8869;-61
2022/09/23 05:42:37;;;;;;;;;3.60;3.60;;;;;8.24;69.64;99976.66;5048251;28;8826;-60
2022/09/23 05:45:06;;;;;;;;;5.80;5.80;;;;;8.26;69.51;99976.53;5049604;28;9199;-62
2022/09/23 05:47:34;;;;;;;;;4.40;3.80;;;;;8.30;69.03;99980.69;5052012;28;8838;-61
2022/09/23 05:50:02;;;;;;;;;6.00;5.60;;;;;8.33;69.50;99976.03;5051607;28;8838;-60
2022/09/23 05:52:30;;;;;;;;;3.00;3.00;;;;;8.36;69.55;99975.78;5050801;28;8838;-61
2022/09/23 05:54:57;;;;;;;;;4.00;3.75;;;;;8.38;69.17;99981.84;5051274;28;8830;-62
2022/09/23 05:57:25;;;;;;;;;3.00;3.00;;;;;8.41;68.83;99981.63;5051763;28;9290;-60
2022/09/23 05:59:53;;;;;;;;;4.00;3.75;;;;;8.44;68.86;99991.19;5052376;28;8842;-61
2022/09/23 06:02:20;;;;;;;;;7.50;6.50;;;;;8.47;68.98;99985.66;5052638;28;8830;-60
2022/09/23 06:04:48;;;;;;;;;6.00;6.00;;;;;8.51;68.73;99984.50;5052328;28;8826;-61
2022/09/23 06:07:16;;;;;;;;;6.00;6.00;;;;;8.54;68.75;99982.47;5052166;28;8822;-61
2022/09/23 06:09:44;;;;;;;;;6.00;5.00;;;;;8.61;68.84;99974.91;5051993;28;8842;-62
2022/09/23 06:12:12;;;;;;;;;5.20;4.40;;;;;8.66;68.21;99973.63;5052470;28;8865;-61
2022/09/23 06:14:40;;;;;;;;;3.25;3.25;;;;;8.77;68.61;99972.88;5051820;28;8823;-59
2022/09/23 06:17:08;;;;;;;;;7.25;6.50;;;;;8.88;68.49;99972.97;5052337;28;8846;-60
2022/09/23 06:19:35;;;;;;;;;4.00;4.00;;;;;8.99;68.29;99975.66;5052584;28;9520;-62
2022/09/23 06:22:03;;;;;;;;;6.25;6.00;;;;;9.11;67.88;99972.13;5052718;28;8862;-60
2022/09/23 06:24:31;;;;;;;;;4.50;4.50;;;;;9.25;67.52;99970.16;5053014;28;8849;-60
2022/09/23 06:26:59;;;;;;;;;6.00;6.00;;;;;9.39;67.35;99969.13;5051475;28;8841;-60
2022/09/23 06:29:30;;;;;;;;;6.00;6.00;;;;;9.52;66.99;99973.44;5049724;28;8894;-59
2022/09/23 06:31:58;;;;;;;;;7.50;6.50;;;;;9.64;66.82;99972.47;5049892;28;8922;-59
2022/09/23 06:34:26;;;;;;;;;7.00;6.00;;;;;9.76;66.73;99968.91;5049762;28;8846;-63
2022/09/23 06:36:56;;;;;;;;;3.00;3.00;;;;;9.86;66.71;99964.56;5050676;28;8926;-62
2022/09/23 06:39:26;;;;;;;;;6.00;4.50;;;;;9.92;66.76;99968.56;5050360;28;8846;-61
2022/09/23 06:41:54;;;;;;;;;5.00;5.00;;;;;9.94;66.81;99964.00;5051499;28;8937;-62
2022/09/23 06:44:22;;;;;;;;;6.00;6.00;;;;;9.92;66.79;99958.78;5052166;28;8845;-62
2022/09/23 06:46:50;;;;;;;;;4.00;4.00;;;;;9.96;66.53;99957.56;5052475;28;8840;-61
2022/09/23 06:49:20;;;;;;;;;6.00;6.00;;;;;10.02;66.97;99964.28;5052089;28;8973;-62
2022/09/23 06:51:48;;;;;;;;;3.75;3.75;;;;;10.07;66.77;99967.44;5052104;28;8826;-61
2022/09/23 06:54:15;;;;;;;;;6.00;6.00;;;;;10.06;66.99;99966.59;5052032;28;8830;-62
2022/09/23 06:56:43;;;;;;;;;7.00;6.50;;;;;10.07;67.05;99959.44;5052213;28;8842;-62
2022/09/23 06:59:11;;;;;;;;;6.25;6.25;;;;;10.07;66.71;99968.28;5051018;28;8842;-61
2022/09/23 07:01:40;;;;;;;;;6.50;6.50;;;;;10.10;66.38;99960.06;5051296;28;8852;-62
2022/09/23 07:04:09;;;;;;;;;9.00;8.50;;;;;10.14;66.99;99968.66;5050735;28;8846;-62
2022/09/23 07:06:36;;;;;;;;;9.00;9.00;;;;;10.19;66.61;99967.34;5051767;28;8830;-62
2022/09/23 07:09:04;;;;;;;;;10.50;10.50;;;;;10.27;66.77;99974.72;5051828;28;8838;-62
2022/09/23 07:11:32;;;;;;;;;10.00;9.25;;;;;10.35;66.68;99970.50;5050989;28;8862;-62
2022/09/23 07:14:00;;;;;;;;;10.00;10.00;;;;;10.47;66.13;99977.53;5051119;28;8866;-61
2022/09/23 07:16:28;;;;;;;;;9.50;8.00;;;;;10.63;66.04;99966.53;5051466;28;8848;-62
2022/09/23 07:18:56;;;;;;;;;7.00;7.00;;;;;10.84;65.66;99970.97;5051344;28;8838;-62
2022/09/23 07:21:24;;;;;;;;;4.50;4.50;;;;;11.04;64.87;99972.88;5051276;28;8922;-61
2022/09/23 07:23:52;;;;;;;;;5.00;4.00;;;;;11.24;65.05;99964.09;5051071;28;9549;-62
2022/09/23 07:26:21;;;;;;;;;4.00;3.75;;;;;11.42;64.42;99972.41;5050234;28;9525;-61
2022/09/23 07:28:49;;;;;;;;;5.00;5.00;;;;;11.62;64.13;99972.50;5050884;28;9511;-61
2022/09/23 07:31:17;;;;;;;;;5.00;3.50;;;;;11.83;64.03;99957.34;5049777;28;8826;-62
2022/09/23 07:33:59;;;;;;;;;5.50;5.50;;;;;12.05;63.35;99968.75;5050095;28;8834;-62
2022/09/23 07:36:30;;;;;;;;;3.00;3.00;;;;;12.26;62.90;99969.59;5049238;28;8881;-62
2022/09/23 07:39:01;;;;;;;;;6.00;5.00;;;;;12.49;63.00;99967.56;5050380;28;8830;-62
2022/09/23 07:41:29;;;;;;;;;6.50;6.00;;;;;12.69;62.29;99972.03;5049663;28;8850;-61
2022/09/23 07:43:57;;;;;;;;;3.25;3.25;;;;;12.92;62.48;99968.19;5048714;28;8915;-61
2022/09/23 07:46:26;;;;;;;;;6.75;6.00;;;;;13.15;61.63;99975.03;5046541;28;8989;-62
2022/09/23 07:48:54;;;;;;;;;7.00;7.00;;;;;13.35;61.22;99960.72;5047938;28;9472;-63
2022/09/23 07:51:22;;;;;;;;;4.50;4.50;;;;;13.51;61.28;99961.84;5047879;28;8826;-61
2022/09/23 07:53:50;;;;;;;;;7.00;7.00;;;;;13.66;60.70;99962.28;5046860;28;8926;-62
2022/09/23 07:56:18;;;;;;;;;7.00;6.00;;;;;13.77;61.03;99964.78;5047886;28;9225;-63
2022/09/23 07:58:58;;;;;;;;;5.75;5.50;;;;;13.90;60.80;99951.97;5047875;28;8960;-62
2022/09/23 08:01:28;;;;;;;;;6.00;6.00;;;;;14.05;60.66;99955.91;5048782;28;8838;-62
2022/09/23 08:03:56;;;;;;;;;6.75;6.00;;;;;14.20;59.88;99954.50;5047069;28;8837;-62
2022/09/23 08:06:24;;;;;;;;;4.50;4.50;;;;;14.34;59.91;99956.72;5047116;28;8846;-63
2022/09/23 08:08:51;;;;;;;;;8.00;8.00;;;;;14.50;60.14;99948.91;5047932;28;8842;-60
2022/09/23 08:11:20;;;;;;;;;8.25;6.50;;;;;14.69;59.92;99952.34;5049861;28;8849;-63
2022/09/23 08:13:48;;;;;;;;;6.75;6.00;;;;;14.88;59.33;99956.78;5050581;28;8822;-62
2022/09/23 08:16:16;;;;;;;;;4.00;4.00;;;;;15.04;59.38;99949.78;5050272;28;8842;-61
2022/09/23 08:18:44;;;;;;;;;5.00;5.00;;;;;15.21;58.93;99945.44;5050524;28;9680;-61
2022/09/23 08:21:11;;;;;;;;;6.50;5.75;;;;;15.38;58.86;99945.47;5050721;28;8830;-61
2022/09/23 08:23:39;;;;;;;;;4.00;4.00;;;;;15.53;58.22;99951.16;5050650;28;8834;-62
2022/09/23 08:26:08;;;;;;;;;1.00;0.00;;;;;15.69;57.78;99944.09;5050888;28;8814;-60
2022/09/23 08:28:47;;;;;;;;;6.00;6.00;;;;;15.84;57.87;99945.25;5049650;28;8826;-61
2022/09/23 08:31:14;;;;;;;;;4.00;4.00;;;;;16.00;57.50;99941.84;5049562;28;8904;-63
2022/09/23 08:33:42;;;;;;;;;4.50;4.00;;;;;16.13;57.69;99943.13;5049601;28;8830;-62
2022/09/23 08:36:10;;;;;;;;;5.50;4.00;;;;;16.23;57.44;99942.03;5048997;28;9533;-60
2022/09/23 08:38:38;;;;;;;;;2.00;2.00;;;;;16.34;57.15;99939.06;5048702;28;8826;-62
2022/09/23 08:41:06;;;;;;;;;5.50;4.00;;;;;16.50;56.99;99939.19;5048553;28;8930;-61
2022/09/23 08:43:33;;;;;;;;;4.00;4.00;;;;;16.69;57.09;99938.09;5048829;28;8870;-60
2022/09/23 08:46:01;;;;;;;;;5.50;5.50;;;;;16.87;56.67;99941.56;5049505;28;8956;-62
2022/09/23 08:48:29;;;;;;;;;4.00;4.00;;;;;16.95;56.42;99939.75;5049425;28;8884;-62
2022/09/23 08:50:58;;;;;;;;;1.40;1.40;;;;;16.99;56.15;99935.72;5048995;28;8850;-63
2022/09/23 08:53:25;;;;;;;;;4.40;4.00;;;;;17.03;56.50;99930.88;5049477;28;8838;-61
2022/09/23 08:55:53;;;;;;;;;3.40;3.40;;;;;17.04;57.03;99938.78;5049327;28;8842;-61
2022/09/23 08:58:21;;;;;;;;;5.60;4.40;;;;;17.05;56.51;99935.09;5049039;28;8862;-61
2022/09/23 09:00:52;;;;;;;;;4.40;4.40;;;;;17.10;56.91;99940.81;5049658;28;8822;-62
2022/09/23 09:03:20;;;;;;;;;4.00;4.00;;;;;17.16;56.75;99933.94;5049075;28;8957;-62
2022/09/23 09:05:48;;;;;;;;;5.20;5.20;;;;;17.24;56.60;99939.34;5049125;28;8830;-61
2022/09/23 09:08:22;;;;;;;;;6.00;6.00;;;;;17.34;56.15;99934.66;5047926;28;8842;-62
2022/09/23 09:10:51;;;;;;;;;6.00;4.80;;;;;17.43;56.01;99929.16;5047844;28;8932;-63
2022/09/23 09:13:19;;;;;;;;;7.00;6.00;;;;;17.47;55.86;99925.09;5048994;28;8854;-62
2022/09/23 09:15:47;;;;;;;;;5.20;5.20;;;;;17.55;55.73;99929.69;5048342;28;8830;-62
2022/09/23 09:18:15;;;;;;;;;5.20;4.00;;;;;17.64;55.92;99925.97;5047731;28;8834;-62
2022/09/23 09:20:42;;;;;;;;;4.00;3.80;;;;;17.72;55.46;99913.38;5047742;28;8915;-60
2022/09/23 09:23:11;;;;;;;;;4.40;4.40;;;;;17.82;55.38;99910.50;5050158;28;8830;-63
2022/09/23 09:25:39;;;;;;;;;5.80;5.60;;;;;17.88;54.84;99907.97;5049086;28;8842;-60
2022/09/23 09:28:07;;;;;;;;;4.00;4.00;;;;;17.90;55.00;99916.72;5050006;28;8838;-62
2022/09/23 09:30:34;;;;;;;;;3.60;3.40;;;;;17.90;54.88;99927.50;5049103;28;8842;-60
2022/09/23 09:33:02;;;;;;;;;3.40;3.40;;;;;17.94;54.98;99915.41;5048448;28;8822;-61
2022/09/23 09:35:32;;;;;;;;;1.80;1.80;;;;;17.99;55.20;99910.31;5049521;28;8952;-60
2022/09/23 09:38:00;;;;;;;;;3.60;3.20;;;;;18.08;55.19;99912.00;5050714;28;9120;-63
2022/09/23 09:40:28;;;;;;;;;4.80;4.80;;;;;18.12;55.02;99909.78;5051272;28;9168;-61
2022/09/23 09:42:56;;;;;;;;;5.20;4.00;;;;;18.16;54.87;99911.16;5051583;28;8841;-61
2022/09/23 09:45:25;;;;;;;;;3.20;3.20;;;;;18.23;55.07;99904.88;5051192;28;8818;-62
2022/09/23 09:47:55;;;;;;;;;3.00;3.00;;;;;18.27;55.08;99906.25;5051840;28;8842;-60
2022/09/23 09:50:24;;;;;;;;;4.00;4.00;;;;;18.32;54.87;99914.69;5050740;28;8837;-62
2022/09/23 09:52:55;;;;;;;;;4.40;4.40;;;;;18.38;54.45;99910.47;5050788;28;9541;-62
2022/09/23 09:55:22;;;;;;;;;4.00;4.00;;;;;18.39;54.38;99907.59;5050767;28;8857;-61
2022/09/23 09:57:51;;;;;;;;;5.20;5.20;;;;;18.39;54.09;99913.00;5050784;28;8980;-60
2022/09/23 10:00:19;;;;;;;;;4.00;4.00;;;;;18.45;54.38;99908.75;5050965;28;8864;-61
2022/09/23 10:02:48;;;;;;;;;3.00;3.00;;;;;18.59;54.12;99903.47;5050245;28;8862;-60
2022/09/23 10:05:16;;;;;;;;;3.80;3.80;;;;;18.69;53.66;99904.16;5049774;28;8981;-59
2022/09/23 10:07:43;;;;;;;;;5.20;5.20;;;;;18.77;53.51;99901.41;5050365;28;8861;-62
2022/09/23 10:10:13;;;;;;;;;6.00;6.00;;;;;18.81;53.51;99894.63;5049909;28;9705;-63
2022/09/23 10:13:01;;;;;;;;;6.00;6.00;;;;;18.90;53.75;99895.44;5050959;28;9127;-63
2022/09/23 10:15:32;;;;;;;;;4.00;4.00;;;;;18.91;53.83;99897.13;5051550;28;8838;-61
2022/09/23 10:18:01;;;;;;;;;5.60;5.60;;;;;18.91;53.90;99897.13;5051247;28;8968;-62
2022/09/23 10:20:29;;;;;;;;;6.40;4.80;;;;;18.96;53.78;99895.56;5050251;28;9005;-61
2022/09/23 10:22:57;;;;;;;;;3.40;3.40;;;;;19.02;53.87;99884.06;5051056;28;8838;-62
2022/09/23 10:25:25;;;;;;;;;4.20;4.20;;;;;19.05;53.57;99893.69;5050326;28;8838;-61
2022/09/23 10:27:53;;;;;;;;;4.00;4.00;;;;;19.05;52.92;99889.09;5049736;28;8841;-62
2022/09/23 10:30:21;;;;;;;;;4.60;4.20;;;;;19.05;53.72;99886.41;5049081;28;8834;-61
2022/09/23 10:32:49;;;;;;;;;4.00;4.00;;;;;19.05;53.40;99889.09;5048213;28;8965;-62
2022/09/23 10:35:19;;;;;;;;;4.00;4.00;;;;;19.07;53.18;99891.63;5048250;28;8826;-61
2022/09/23 10:37:48;;;;;;;;;6.20;6.00;;;;;19.09;53.20;99889.59;5048327;28;8944;-60
2022/09/23 10:48:34;;;;;;;;;4.00;4.00;;;;;19.50;52.99;99872.97;5049217;28;9036;-61
2022/09/23 10:51:02;;;;;;;;;4.00;4.00;;;;;19.65;52.64;99873.88;5048032;28;8830;-60
2022/09/23 10:53:30;;;;;;;;;1.80;1.80;;;;;19.74;52.21;99878.22;5048947;28;8834;-60
2022/09/23 10:55:58;;;;;;;;;3.20;2.60;;;;;19.76;52.31;99873.47;5049191;28;8860;-61
2022/09/23 10:58:26;;;;;;;;;2.20;2.20;;;;;19.84;52.15;99870.69;5049183;28;8853;-61
2022/09/23 11:00:55;;;;;;;;;1.40;1.40;;;;;19.92;51.70;99865.19;5049625;28;8846;-61
2022/09/23 11:03:23;;;;;;;;;2.20;2.20;;;;;20.01;51.78;99866.81;5048693;28;8895;-62
2022/09/23 11:05:51;;;;;;;;;1.00;1.00;;;;;20.11;51.89;99863.88;5048822;28;8910;-63
2022/09/23 11:08:19;;;;;;;;;4.00;2.00;;;;;20.30;51.19;99866.03;5048018;28;8846;-61
2022/09/23 11:10:49;;;;;;;;;3.60;3.60;;;;;20.49;50.80;99866.31;5048193;28;8865;-61
2022/09/23 11:13:17;;;;;;;;;3.60;3.20;;;;;20.64;50.66;99864.44;5047903;28;8822;-62
2022/09/23 11:15:45;;;;;;;;;3.20;1.60;;;;;20.68;50.76;99865.75;5046674;28;8898;-62
2022/09/23 11:18:13;;;;;;;;;2.00;2.00;;;;;20.75;50.50;99853.97;5049158;28;8906;-61
2022/09/23 11:20:41;;;;;;;;;2.00;2.00;;;;;20.94;50.15;99856.13;5048612;28;8845;-62
2022/09/23 11:23:08;;;;;;;;;2.40;2.40;;;;;21.19;48.86;99846.63;5047602;28;8834;-61
2022/09/23 11:25:37;;;;;;;;;4.40;4.40;;;;;21.32;48.66;99843.19;5047436;28;8915;-61
2022/09/23 11:28:05;;;;;;;;;2.80;2.80;;;;;21.37;48.79;99852.47;5047785;28;8960;-61
2022/09/23 11:30:33;;;;;;;;;2.00;2.00;;;;;21.42;48.21;99843.75;5047400;28;8942;-62
2022/09/23 11:33:02;;;;;;;;;2.40;2.40;;;;;21.65;47.67;99838.97;5048349;28;8841;-62
2022/09/23 11:35:35;;;;;;;;;1.00;0.20;;;;;22.01;47.58;99826.16;5049737;28;8902;-60
2022/09/23 11:38:05;;;;;;;;;4.40;4.40;;;;;22.40;47.08;99832.66;5050436;28;8884;-61
2022/09/23 11:40:33;;;;;;;;;3.60;2.80;;;;;22.77;46.29;99826.81;5049414;28;8980;-61
2022/09/23 11:43:01;;;;;;;;;2.00;2.00;;;;;23.24;45.61;99824.09;5047976;28;8834;-62
2022/09/23 11:45:28;;;;;;;;;2.00;2.00;;;;;23.63;44.87;99818.72;5048438;28;8941;-63
2022/09/23 11:47:56;;;;;;;;;2.00;2.00;;;;;23.94;44.87;99820.81;5048448;28;8865;-62
2022/09/23 11:50:26;;;;;;;;;0.80;0.80;;;;;24.01;44.22;99821.66;5047804;28;8842;-61
2022/09/23 11:52:57;;;;;;;;;2.00;2.00;;;;;24.08;44.37;99822.50;5046470;28;8837;-60
2022/09/23 11:55:25;;;;;;;;;4.20;4.00;;;;;24.14;44.11;99816.22;5047602;28;8846;-60
2022/09/23 11:57:53;;;;;;;;;2.00;1.80;;;;;24.34;44.05;99817.03;5048120;28;8842;-60
2022/09/23 12:00:21;;;;;;;;;2.00;2.00;;;;;24.87;43.73;99810.38;5048495;28;8938;-62